Time;durP1;ratioP1;P1;durP2;ratioP2;P2;SDS_P1;SDS_P2;PMS_P1;PMS_P2;Temp;Humidity;BMP_temperature;BMP_pressure;BME280_temperature;BME280_humidity;BME280_pressure;Samples;Min_cycle;Max_cycle;Signal;HPM_P1;HPM_P2
2023/02/08 00:01:21;;;;;;;17.63;9.00;;;5.70;99.90;;;;;;5074828;28;20051;-37
2023/02/08 00:03:47;;;;;;;17.85;9.75;;;5.70;99.90;;;;;;5074157;28;20025;-33
2023/02/08 00:06:13;;;;;;;19.98;10.25;;;5.90;99.90;;;;;;5073989;28;20035;-32
2023/02/08 00:08:39;;;;;;;17.70;9.38;;;6.10;99.90;;;;;;5074001;28;20020;-34
2023/02/08 00:11:06;;;;;;;15.27;8.63;;;6.30;99.90;;;;;;5074010;28;20024;-35
2023/02/08 00:13:32;;;;;;;17.63;8.95;;;6.40;99.90;;;;;;5074170;28;20039;-34
2023/02/08 00:15:58;;;;;;;16.40;8.73;;;6.40;99.90;;;;;;5073652;28;20059;-34
2023/02/08 00:18:24;;;;;;;16.08;8.88;;;6.30;99.90;;;;;;5073748;28;20341;-33
2023/02/08 00:20:51;;;;;;;15.93;8.98;;;6.20;99.90;;;;;;5073758;28;20081;-33
2023/02/08 00:23:17;;;;;;;18.23;8.98;;;6.20;99.90;;;;;;5073727;28;20028;-39
2023/02/08 00:25:43;;;;;;;17.65;8.65;;;6.10;99.90;;;;;;5074180;28;20116;-34
2023/02/08 00:28:14;;;;;;;13.38;8.57;;;6.00;99.90;;;;;;5073834;28;20029;-34
2023/02/08 00:30:40;;;;;;;15.63;9.02;;;6.00;99.90;;;;;;5073148;28;20074;-34
2023/02/08 00:33:06;;;;;;;14.40;8.30;;;5.90;99.90;;;;;;5073515;28;20028;-35
2023/02/08 00:35:31;;;;;;;14.05;8.07;;;5.90;99.90;;;;;;5073442;28;20364;-34
2023/02/08 00:37:57;;;;;;;15.90;8.73;;;5.90;99.90;;;;;;5073260;28;20109;-38
2023/02/08 00:40:24;;;;;;;13.85;8.57;;;5.80;99.90;;;;;;5073373;28;20025;-34
2023/02/08 00:42:50;;;;;;;13.15;8.00;;;5.80;99.90;;;;;;5073436;28;20032;-34
2023/02/08 00:45:15;;;;;;;15.13;8.10;;;5.80;99.90;;;;;;5073306;28;20046;-37
2023/02/08 00:47:41;;;;;;;13.45;7.38;;;5.80;99.90;;;;;;5073004;28;20367;-34
2023/02/08 00:50:08;;;;;;;16.67;8.43;;;5.80;99.90;;;;;;5073289;28;20024;-34
2023/02/08 00:52:34;;;;;;;13.57;8.10;;;5.70;99.90;;;;;;5073528;28;20035;-36
2023/02/08 00:54:59;;;;;;;15.55;8.25;;;5.70;99.90;;;;;;5073331;28;20394;-32
2023/02/08 00:57:25;;;;;;;15.85;8.57;;;5.70;99.90;;;;;;5072799;28;20029;-36
2023/02/08 00:59:51;;;;;;;12.73;7.82;;;5.70;99.90;;;;;;5072982;28;20056;-35
2023/02/08 01:02:16;;;;;;;13.77;7.72;;;5.70;99.90;;;;;;5073181;28;20028;-34
2023/02/08 01:04:42;;;;;;;14.52;7.70;;;5.80;99.90;;;;;;5072895;28;20102;-37
2023/02/08 01:07:08;;;;;;;14.65;8.20;;;5.90;99.90;;;;;;5072373;28;20023;-34
2023/02/08 01:09:34;;;;;;;13.43;7.80;;;6.20;99.90;;;;;;5073056;28;20120;-32
2023/02/08 01:12:00;;;;;;;13.73;8.02;;;6.30;99.90;;;;;;5072938;28;20024;-35
2023/02/08 01:14:26;;;;;;;14.77;7.75;;;6.30;99.90;;;;;;5073215;28;20027;-34
2023/02/08 01:16:52;;;;;;;12.45;7.55;;;6.30;99.90;;;;;;5072973;28;20024;-38
2023/02/08 01:19:18;;;;;;;13.68;7.63;;;6.20;99.90;;;;;;5073109;28;20078;-34
2023/02/08 01:21:44;;;;;;;13.38;7.47;;;6.20;99.90;;;;;;5073021;28;20488;-32
2023/02/08 01:24:10;;;;;;;11.43;7.40;;;6.10;99.90;;;;;;5072425;28;20116;-40
2023/02/08 01:26:36;;;;;;;11.23;6.82;;;6.00;99.90;;;;;;5072420;28;20139;-41
2023/02/08 01:29:03;;;;;;;14.48;7.95;;;6.00;99.90;;;;;;5072571;28;20017;-43
2023/02/08 01:31:35;;;;;;;13.48;7.70;;;6.00;99.90;;;;;;5072371;28;20471;-41
2023/02/08 01:34:01;;;;;;;11.70;6.95;;;5.90;99.90;;;;;;5072689;28;20375;-41
2023/02/08 01:36:28;;;;;;;12.38;6.85;;;5.80;99.90;;;;;;5072508;28;20082;-43
2023/02/08 01:38:54;;;;;;;14.65;7.63;;;5.80;99.90;;;;;;5072422;28;20536;-43
2023/02/08 01:41:25;;;;;;;12.75;7.20;;;5.80;99.90;;;;;;5072538;28;20028;-41
2023/02/08 01:44:09;;;;;;;12.52;7.00;;;5.70;99.90;;;;;;5071809;28;20127;-40
2023/02/08 01:46:40;;;;;;;13.82;7.18;;;5.70;99.90;;;;;;5071942;28;20042;-43
2023/02/08 01:49:33;;;;;;;15.13;7.53;;;5.70;99.90;;;;;;5072162;28;20475;-42
2023/02/08 01:52:05;;;;;;;12.77;7.38;;;5.70;99.90;;;;;;5072081;28;20016;-42
2023/02/08 01:54:54;;;;;;;10.55;6.80;;;5.70;99.90;;;;;;5072057;28;20112;-40
2023/02/08 01:57:22;;;;;;;12.10;7.32;;;5.70;99.90;;;;;;5071993;28;20036;-35
2023/02/08 01:59:55;;;;;;;13.07;7.53;;;5.60;99.90;;;;;;5071281;28;20073;-35
2023/02/08 02:02:24;;;;;;;12.77;6.68;;;5.60;99.90;;;;;;5072488;28;20033;-33
2023/02/08 02:04:51;;;;;;;11.63;6.88;;;5.70;99.90;;;;;;5072180;28;20024;-33
2023/02/08 02:07:19;;;;;;;11.55;7.32;;;5.80;99.90;;;;;;5071990;28;20025;-36
2023/02/08 02:10:09;;;;;;;12.32;6.82;;;6.00;99.90;;;;;;5070711;28;20032;-34
2023/02/08 02:12:37;;;;;;;12.07;6.47;;;6.20;99.90;;;;;;5071753;28;20048;-37
2023/02/08 02:15:04;;;;;;;9.90;6.72;;;6.20;99.90;;;;;;5071993;28;20020;-38
2023/02/08 02:17:30;;;;;;;10.73;6.80;;;6.20;99.90;;;;;;5071394;28;20035;-35
2023/02/08 02:20:13;;;;;;;11.50;6.53;;;6.10;99.90;;;;;;5072005;28;20450;-37
2023/02/08 02:23:09;;;;;;;11.60;6.65;;;6.00;99.90;;;;;;5070398;28;20083;-38
2023/02/08 02:25:41;;;;;;;12.40;6.40;;;6.00;99.90;;;;;;5071417;28;20035;-32
2023/02/08 02:28:19;;;;;;;11.20;6.90;;;5.90;99.90;;;;;;5071719;28;20073;-36
2023/02/08 02:31:06;;;;;;;11.43;5.78;;;5.90;99.90;;;;;;5071631;28;20028;-35
2023/02/08 02:33:49;;;;;;;10.45;6.53;;;5.80;99.90;;;;;;5071809;28;20023;-36
2023/02/08 02:36:24;;;;;;;11.57;6.97;;;5.70;99.90;;;;;;5071275;28;20131;-35
2023/02/08 02:39:11;;;;;;;11.10;6.55;;;5.70;99.90;;;;;;5071646;28;20439;-35
2023/02/08 02:44:39;;;;;;;10.27;6.07;;;5.60;99.90;;;;;;5071352;28;20075;-38
2023/02/08 02:47:25;;;;;;;10.43;6.63;;;5.60;99.90;;;;;;5069963;28;20082;-36
2023/02/08 02:50:10;;;;;;;10.88;6.18;;;5.60;99.90;;;;;;5071575;28;20024;-35
2023/02/08 02:52:45;;;;;;;12.43;6.68;;;5.60;99.90;;;;;;5069920;28;20035;-33
2023/02/08 02:55:15;;;;;;;10.52;6.35;;;5.50;99.90;;;;;;5071067;28;20103;-36
2023/02/08 02:57:43;;;;;;;10.98;6.63;;;5.50;99.90;;;;;;5070889;28;20032;-35
2023/02/08 03:00:12;;;;;;;10.38;6.35;;;5.50;99.90;;;;;;5070945;28;20047;-33
2023/02/08 03:02:38;;;;;;;12.10;6.97;;;5.50;99.90;;;;;;5071101;28;20070;-34
2023/02/08 03:05:09;;;;;;;10.18;6.25;;;5.60;99.90;;;;;;5071289;28;20036;-33
2023/02/08 03:07:59;;;;;;;9.15;5.93;;;5.70;99.90;;;;;;5071222;28;20024;-33
2023/02/08 03:11:11;;;;;;;10.55;6.50;;;5.90;99.90;;;;;;5071082;28;20171;-40
2023/02/08 03:13:55;;;;;;;10.52;6.60;;;6.20;99.90;;;;;;5071018;28;20048;-36
2023/02/08 03:16:49;;;;;;;8.82;5.72;;;6.20;99.90;;;;;;5071055;28;20414;-34
2023/02/08 03:19:39;;;;;;;8.90;5.80;;;6.10;99.90;;;;;;5071342;28;20066;-34
2023/02/08 03:22:13;;;;;;;11.07;6.63;;;6.00;99.90;;;;;;5071520;28;20029;-34
2023/02/08 03:24:57;;;;;;;8.00;5.55;;;6.00;99.90;;;;;;5070827;28;20037;-34
2023/02/08 03:27:29;;;;;;;;;;;5.90;99.90;;;;;;5071004;28;20021;-34
2023/02/08 03:30:02;;;;;;;9.00;5.93;;;5.90;99.90;;;;;;5070717;28;19915;-35
2023/02/08 03:32:45;;;;;;;10.45;6.47;;;5.80;99.90;;;;;;5071067;28;20012;-34
2023/02/08 03:35:46;;;;;;;12.85;6.45;;;5.70;99.90;;;;;;5070918;28;20035;-34
2023/02/08 03:38:20;;;;;;;9.35;5.97;;;5.70;99.90;;;;;;5070132;28;20067;-32
2023/02/08 03:40:50;;;;;;;12.32;6.35;;;5.70;99.90;;;;;;5070944;28;20474;-35
2023/02/08 03:43:27;;;;;;;12.02;6.50;;;5.60;99.90;;;;;;5070629;28;20032;-37
2023/02/08 03:46:12;;;;;;;12.68;6.97;;;5.50;99.90;;;;;;5070512;28;20535;-38
2023/02/08 03:48:40;;;;;;;11.25;6.57;;;5.50;99.90;;;;;;5071374;28;20048;-34
2023/02/08 03:51:07;;;;;;;11.52;6.65;;;5.50;99.90;;;;;;5070715;28;20025;-33
2023/02/08 03:53:39;;;;;;;10.15;6.13;;;5.50;99.90;;;;;;5070531;28;20170;-35
2023/02/08 03:56:17;;;;;;;10.95;6.57;;;5.50;99.90;;;;;;5070427;28;20036;-39
2023/02/08 03:58:48;;;;;;;10.93;6.75;;;5.40;99.90;;;;;;5070540;28;20082;-35
2023/02/08 04:01:29;;;;;;;10.05;6.20;;;5.40;99.90;;;;;;5070616;28;20526;-36
2023/02/08 04:03:56;;;;;;;10.48;6.70;;;5.50;99.90;;;;;;5070487;28;20056;-32
2023/02/08 04:06:22;;;;;;;8.43;5.95;;;5.50;99.90;;;;;;5071102;28;20100;-36
2023/02/08 04:08:49;;;;;;;9.95;5.97;;;5.70;99.90;;;;;;5074054;28;20378;-33
2023/02/08 04:11:15;;;;;;;11.10;6.40;;;5.90;99.90;;;;;;5073908;28;20024;-34
2023/02/08 04:13:41;;;;;;;11.88;6.45;;;6.10;99.90;;;;;;5074031;28;20036;-34
2023/02/08 04:16:08;;;;;;;7.72;5.50;;;6.10;99.90;;;;;;5072578;28;20021;-33
2023/02/08 04:18:33;;;;;;;9.30;5.82;;;6.10;99.90;;;;;;5074515;28;20033;-35
2023/02/08 04:20:59;;;;;;;8.65;5.75;;;6.00;99.90;;;;;;5073715;28;20032;-35
2023/02/08 04:23:25;;;;;;;9.65;6.07;;;5.90;99.90;;;;;;5073751;28;20033;-34
2023/02/08 04:25:50;;;;;;;10.73;6.43;;;5.80;99.90;;;;;;5072173;28;20032;-37
2023/02/08 04:28:16;;;;;;;9.93;6.32;;;5.80;99.90;;;;;;5073619;28;20024;-36
2023/02/08 04:30:41;;;;;;;10.10;6.00;;;5.70;99.90;;;;;;5073982;28;20028;-32
2023/02/08 04:33:07;;;;;;;11.05;6.45;;;5.70;99.90;;;;;;5073899;28;20383;-34
2023/02/08 04:35:33;;;;;;;9.18;6.25;;;5.70;99.90;;;;;;5073889;28;20028;-33
2023/02/08 04:37:58;;;;;;;9.75;6.07;;;5.60;99.90;;;;;;5072027;28;20471;-36
2023/02/08 04:40:24;;;;;;;10.10;6.63;;;5.50;99.90;;;;;;5073454;28;20070;-37
2023/02/08 04:42:50;;;;;;;9.95;5.93;;;5.50;99.90;;;;;;5073427;28;20017;-36
2023/02/08 04:45:15;;;;;;;10.50;6.28;;;5.50;99.90;;;;;;5073409;28;20133;-35
2023/02/08 04:47:41;;;;;;;13.05;6.60;;;5.50;99.90;;;;;;5072126;28;20028;-38
2023/02/08 04:50:07;;;;;;;11.85;6.68;;;5.50;99.90;;;;;;5073207;28;20532;-35
2023/02/08 04:52:32;;;;;;;10.27;6.13;;;5.40;99.90;;;;;;5073403;28;20020;-35
2023/02/08 04:54:58;;;;;;;8.93;5.88;;;5.40;99.90;;;;;;5073255;28;20494;-35
2023/02/08 04:57:24;;;;;;;10.07;6.13;;;5.30;99.90;;;;;;5073372;28;20036;-32
2023/02/08 04:59:49;;;;;;;10.20;6.13;;;5.30;99.90;;;;;;5073221;28;20040;-35
2023/02/08 05:02:15;;;;;;;12.68;6.45;;;5.30;99.90;;;;;;5073356;28;20025;-37
2023/02/08 05:04:40;;;;;;;9.18;5.95;;;5.40;99.90;;;;;;5072869;28;20029;-37
2023/02/08 05:07:06;;;;;;;10.73;6.60;;;5.50;99.90;;;;;;5072877;28;20025;-34
2023/02/08 05:09:32;;;;;;;9.43;5.88;;;5.70;99.90;;;;;;5073068;28;20056;-36
2023/02/08 05:11:57;;;;;;;10.45;6.53;;;6.00;99.90;;;;;;5073088;28;20060;-35
2023/02/08 05:14:23;;;;;;;10.57;6.07;;;6.00;99.90;;;;;;5073100;28;20113;-34
2023/02/08 05:16:48;;;;;;;10.15;5.97;;;6.00;99.90;;;;;;5073134;28;20037;-32
2023/02/08 05:19:14;;;;;;;9.55;6.05;;;5.90;99.90;;;;;;5072117;28;20056;-34
2023/02/08 05:21:40;;;;;;;10.60;6.05;;;5.90;99.90;;;;;;5072857;28;20410;-33
2023/02/08 05:24:06;;;;;;;8.25;6.03;;;5.80;99.90;;;;;;5072552;28;20035;-37
2023/02/08 05:26:32;;;;;;;11.60;6.82;;;5.80;99.90;;;;;;5072482;28;20025;-35
2023/02/08 05:28:58;;;;;;;11.85;7.35;;;5.70;99.90;;;;;;5072900;28;20486;-32
2023/02/08 05:31:24;;;;;;;11.25;6.70;;;5.70;99.90;;;;;;5072570;28;20474;-36
2023/02/08 05:33:51;;;;;;;10.15;6.47;;;5.60;99.90;;;;;;5072835;28;20486;-35
2023/02/08 05:36:17;;;;;;;9.68;6.25;;;5.50;99.90;;;;;;5072155;28;20371;-37
2023/02/08 05:38:43;;;;;;;9.43;5.95;;;5.50;99.90;;;;;;5072476;28;20112;-34
2023/02/08 05:41:09;;;;;;;11.48;6.75;;;5.50;99.90;;;;;;5072358;28;20469;-37
2023/02/08 05:43:35;;;;;;;12.88;7.38;;;5.40;99.90;;;;;;5072033;28;20028;-34
2023/02/08 05:46:01;;;;;;;16.00;7.97;;;4.90;99.90;;;;;;5071932;28;20020;-34
2023/02/08 05:48:26;;;;;;;14.00;7.65;;;4.40;99.90;;;;;;5072088;28;20055;-39
2023/02/08 05:50:52;;;;;;;16.25;8.07;;;4.20;99.90;;;;;;5071895;28;20028;-33
2023/02/08 05:53:19;;;;;;;13.95;8.00;;;4.10;99.90;;;;;;5072007;28;20090;-38
2023/02/08 05:55:45;;;;;;;12.48;8.02;;;4.10;99.90;;;;;;5071714;28;20081;-37
2023/02/08 05:58:11;;;;;;;13.25;7.93;;;4.10;99.90;;;;;;5071767;28;20025;-35
2023/02/08 06:00:37;;;;;;;11.32;7.25;;;4.20;99.90;;;;;;5071867;28;20481;-35
2023/02/08 06:03:03;;;;;;;14.55;7.93;;;4.20;99.90;;;;;;5072009;28;20062;-34
2023/02/08 06:05:29;;;;;;;14.50;8.13;;;4.30;99.90;;;;;;5071764;28;20024;-35
2023/02/08 06:07:54;;;;;;;12.80;7.50;;;4.60;99.90;;;;;;5071696;28;20364;-33
2023/02/08 06:10:20;;;;;;;15.20;8.02;;;4.90;99.90;;;;;;5071709;28;20076;-36
2023/02/08 06:12:46;;;;;;;14.05;7.65;;;5.20;99.90;;;;;;5071754;28;20032;-35
2023/02/08 06:15:11;;;;;;;12.23;7.72;;;5.30;99.90;;;;;;5070506;28;20039;-38
2023/02/08 06:17:37;;;;;;;13.85;7.78;;;5.30;99.90;;;;;;5071544;28;20032;-36
2023/02/08 06:20:03;;;;;;;13.80;7.45;;;5.30;99.90;;;;;;5071438;28;20068;-39
2023/02/08 06:22:29;;;;;;;13.07;8.05;;;5.30;99.90;;;;;;5071577;28;20406;-38
2023/02/08 06:24:55;;;;;;;12.40;7.65;;;5.20;99.90;;;;;;5071480;28;20031;-37
2023/02/08 06:27:21;;;;;;;11.80;7.15;;;5.20;99.90;;;;;;5071783;28;20029;-36
2023/02/08 06:29:47;;;;;;;12.00;7.30;;;5.10;99.90;;;;;;5069923;28;20363;-40
2023/02/08 06:32:12;;;;;;;14.48;7.75;;;5.00;99.90;;;;;;5071709;28;20052;-38
2023/02/08 06:34:38;;;;;;;12.50;7.85;;;5.00;99.90;;;;;;5071608;28;20067;-35
2023/02/08 06:37:04;;;;;;;12.02;7.68;;;5.00;99.90;;;;;;5071281;28;20475;-37
2023/02/08 06:39:30;;;;;;;13.18;7.53;;;5.00;99.90;;;;;;5071535;28;20035;-35
2023/02/08 06:41:55;;;;;;;13.60;7.70;;;5.00;99.90;;;;;;5071683;28;20025;-35
2023/02/08 06:44:21;;;;;;;14.75;7.63;;;4.90;99.90;;;;;;5071330;28;20028;-39
2023/02/08 06:46:47;;;;;;;11.27;6.93;;;4.90;99.90;;;;;;5070991;28;20516;-37
2023/02/08 06:49:12;;;;;;;12.63;7.68;;;4.90;99.90;;;;;;5071071;28;20040;-33
2023/02/08 06:51:39;;;;;;;15.68;7.97;;;4.90;99.90;;;;;;5071325;28;20486;-38
2023/02/08 06:54:05;;;;;;;14.05;7.60;;;4.80;99.90;;;;;;5071373;28;20032;-36
2023/02/08 06:56:30;;;;;;;11.23;7.40;;;4.90;99.90;;;;;;5071098;28;20032;-36
2023/02/08 06:58:56;;;;;;;14.43;8.30;;;4.90;99.90;;;;;;5071276;28;20033;-36
2023/02/08 07:01:22;;;;;;;14.35;7.35;;;4.90;99.90;;;;;;5071031;28;20209;-39
2023/02/08 07:03:48;;;;;;;13.20;7.57;;;4.90;99.90;;;;;;5071440;28;20645;-36
2023/02/08 07:06:15;;;;;;;12.60;7.38;;;5.00;99.90;;;;;;5071193;28;20024;-35
2023/02/08 07:08:41;;;;;;;13.27;7.50;;;5.20;99.90;;;;;;5071211;28;20383;-33
2023/02/08 07:11:09;;;;;;;13.20;7.85;;;5.40;99.90;;;;;;5071190;28;20612;-34
2023/02/08 07:13:36;;;;;;;11.45;7.25;;;5.60;99.90;;;;;;5069867;28;20493;-35
2023/02/08 07:16:03;;;;;;;14.40;7.18;;;5.60;99.90;;;;;;5070810;28;20040;-39
2023/02/08 07:18:29;;;;;;;13.13;7.40;;;5.60;99.90;;;;;;5071029;28;20394;-40
2023/02/08 07:20:55;;;;;;;13.48;7.60;;;5.50;99.90;;;;;;5070834;28;20102;-38
2023/02/08 07:23:21;;;;;;;12.52;7.70;;;5.40;99.90;;;;;;5069429;28;20035;-40
2023/02/08 07:25:57;;;;;;;13.18;7.95;;;5.40;99.90;;;;;;5070806;28;20055;-34
2023/02/08 07:28:23;;;;;;;14.57;8.35;;;5.30;99.90;;;;;;5070968;28;20032;-33
2023/02/08 07:30:48;;;;;;;14.35;8.13;;;5.30;99.90;;;;;;5071300;28;20055;-36
2023/02/08 07:33:14;;;;;;;14.40;8.02;;;5.20;99.90;;;;;;5070884;28;20028;-35
2023/02/08 07:35:40;;;;;;;13.95;8.50;;;5.20;99.90;;;;;;5070691;28;20559;-38
2023/02/08 07:38:05;;;;;;;14.85;7.60;;;5.10;99.90;;;;;;5070620;28;20023;-37
2023/02/08 07:40:31;;;;;;;12.75;7.32;;;5.20;99.90;;;;;;5070937;28;20551;-33
2023/02/08 07:42:56;;;;;;;12.38;7.53;;;5.20;99.90;;;;;;5074516;28;20017;-37
2023/02/08 07:45:22;;;;;;;13.50;7.90;;;5.20;99.90;;;;;;5074301;28;20028;-36
2023/02/08 07:47:48;;;;;;;12.73;7.32;;;5.10;99.90;;;;;;5074155;28;20099;-33
2023/02/08 07:50:15;;;;;;;16.13;8.15;;;5.20;99.90;;;;;;5074382;28;20383;-36
2023/02/08 07:52:42;;;;;;;13.00;7.47;;;5.20;99.90;;;;;;5074423;28;20029;-35
2023/02/08 07:55:10;;;;;;;11.10;7.47;;;5.20;99.90;;;;;;5074422;28;20095;-34
2023/02/08 07:57:36;;;;;;;11.93;7.40;;;5.20;99.90;;;;;;5074353;28;20111;-38
2023/02/08 08:00:03;;;;;;;12.30;7.53;;;5.30;99.90;;;;;;5074265;28;20125;-36
2023/02/08 08:02:28;;;;;;;13.13;7.85;;;5.30;99.90;;;;;;5074501;28;20378;-38
2023/02/08 08:04:54;;;;;;;13.30;7.60;;;5.30;99.90;;;;;;5073948;28;20034;-37
2023/02/08 08:07:20;;;;;;;13.80;8.20;;;5.30;99.90;;;;;;5074128;28;20055;-33
2023/02/08 08:09:45;;;;;;;12.00;7.82;;;5.40;99.90;;;;;;5074351;28;20042;-34
2023/02/08 08:12:11;;;;;;;14.90;7.72;;;5.30;99.90;;;;;;5073999;28;20059;-36
2023/02/08 08:14:36;;;;;;;14.40;8.00;;;5.40;99.90;;;;;;5073884;28;20028;-40
2023/02/08 08:17:02;;;;;;;11.88;7.53;;;5.40;99.90;;;;;;5073724;28;20031;-35
2023/02/08 08:19:27;;;;;;;14.50;7.95;;;5.50;99.90;;;;;;5073835;28;20028;-39
2023/02/08 08:21:53;;;;;;;13.57;8.05;;;5.50;99.90;;;;;;5073875;28;20597;-37
2023/02/08 08:24:19;;;;;;;12.05;7.55;;;5.50;99.90;;;;;;5073924;28;20146;-39
2023/02/08 08:26:44;;;;;;;11.25;7.30;;;5.50;99.90;;;;;;5073973;28;20681;-34
2023/02/08 08:29:10;;;;;;;12.98;7.18;;;5.50;99.90;;;;;;5073816;28;20074;-34
2023/02/08 08:31:37;;;;;;;11.50;7.10;;;5.60;99.90;;;;;;5073533;28;20429;-38
2023/02/08 08:34:03;;;;;;;12.73;7.75;;;5.60;99.90;;;;;;5073801;28;20032;-33
2023/02/08 08:36:29;;;;;;;12.18;7.38;;;5.60;99.90;;;;;;5073575;28;20355;-37
2023/02/08 08:38:55;;;;;;;15.90;8.02;;;5.60;99.90;;;;;;5073599;28;20036;-34
2023/02/08 08:41:26;;;;;;;12.10;7.43;;;5.70;99.90;;;;;;5073533;28;20372;-37
2023/02/08 08:43:51;;;;;;;12.88;7.70;;;5.70;99.90;;;;;;5073726;28;20029;-33
2023/02/08 08:46:18;;;;;;;10.38;6.68;;;5.70;99.90;;;;;;5073193;28;20103;-40
2023/02/08 08:48:44;;;;;;;11.35;7.15;;;5.70;99.90;;;;;;5073662;28;20020;-35
2023/02/08 08:51:10;;;;;;;12.00;7.07;;;5.80;99.90;;;;;;5073246;28;20027;-38
2023/02/08 08:53:36;;;;;;;11.73;7.28;;;5.80;99.90;;;;;;5072976;28;20024;-40
2023/02/08 08:56:03;;;;;;;13.63;8.52;;;5.90;99.90;;;;;;5072993;28;20154;-35
2023/02/08 08:58:28;;;;;;;14.07;7.38;;;5.90;99.90;;;;;;5073137;28;20504;-36
2023/02/08 09:00:59;;;;;;;15.13;7.47;;;5.90;99.90;;;;;;5073311;28;20099;-38
2023/02/08 09:03:25;;;;;;;19.45;11.38;;;6.00;99.90;;;;;;5073198;28;20045;-38
2023/02/08 09:05:51;;;;;;;20.38;11.05;;;5.70;99.90;;;;;;5073126;28;20024;-35
2023/02/08 09:08:17;;;;;;;20.88;10.88;;;5.50;99.90;;;;;;5072988;28;20040;-39
2023/02/08 09:10:43;;;;;;;22.27;12.07;;;5.30;99.90;;;;;;5073285;28;20060;-40
2023/02/08 09:13:09;;;;;;;18.48;10.63;;;5.20;99.90;;;;;;5073171;28;20051;-34
2023/02/08 09:15:38;;;;;;;18.52;11.57;;;5.20;99.90;;;;;;5073222;28;20085;-39
2023/02/08 09:18:04;;;;;;;18.50;11.07;;;5.20;99.90;;;;;;5072747;28;20478;-37
2023/02/08 09:20:29;;;;;;;19.10;10.18;;;5.20;99.90;;;;;;5072908;28;20029;-39
2023/02/08 09:22:55;;;;;;;19.70;10.30;;;5.30;99.90;;;;;;5072929;28;20371;-40
2023/02/08 09:25:22;;;;;;;16.73;10.18;;;5.30;99.90;;;;;;5071743;28;20055;-35
2023/02/08 09:27:47;;;;;;;17.92;10.05;;;5.40;99.90;;;;;;5071183;28;20482;-38
2023/02/08 09:30:13;;;;;;;16.48;9.93;;;5.40;99.90;;;;;;5072482;28;20051;-37
2023/02/08 09:32:39;;;;;;;19.60;10.23;;;5.40;99.90;;;;;;5072489;28;20025;-37
2023/02/08 09:35:06;;;;;;;17.25;9.88;;;5.50;99.90;;;;;;5072620;28;20025;-35
2023/02/08 09:37:32;;;;;;;18.70;10.18;;;5.50;99.90;;;;;;5070793;28;20522;-38
2023/02/08 09:39:58;;;;;;;16.17;9.48;;;5.50;99.90;;;;;;5072279;28;20040;-39
2023/02/08 09:42:24;;;;;;;18.70;9.73;;;5.60;99.90;;;;;;5072445;28;20125;-40
2023/02/08 09:45:11;;;;;;;14.88;9.57;;;5.60;99.90;;;;;;5072337;28;20481;-41
2023/02/08 09:47:46;;;;;;;16.42;9.30;;;5.60;99.90;;;;;;5072345;28;20025;-37
2023/02/08 09:50:25;;;;;;;16.10;8.95;;;5.70;99.90;;;;;;5072351;28;20023;-37
2023/02/08 09:53:07;;;;;;;17.38;9.15;;;5.70;99.90;;;;;;5070997;28;20020;-34
2023/02/08 09:55:39;;;;;;;14.63;8.43;;;5.80;99.90;;;;;;5071922;28;20639;-38
2023/02/08 09:58:41;;;;;;;14.80;8.18;;;5.80;99.90;;;;;;5072134;28;20386;-42
2023/02/08 10:01:19;;;;;;;17.50;9.07;;;5.80;99.90;;;;;;5070829;28;20041;-37
2023/02/08 10:03:47;;;;;;;11.63;7.60;;;5.90;99.90;;;;;;5071356;28;20052;-39
2023/02/08 10:06:16;;;;;;;14.70;8.50;;;5.90;99.90;;;;;;5071803;28;20474;-38
2023/02/08 10:08:44;;;;;;;14.52;8.20;;;5.90;99.90;;;;;;5072580;28;20017;-36
2023/02/08 10:11:30;;;;;;;14.23;7.75;;;6.00;99.90;;;;;;5071705;28;20047;-43
2023/02/08 10:14:14;;;;;;;14.10;7.72;;;6.00;99.90;;;;;;5070897;28;20045;-43
2023/02/08 10:17:09;;;;;;;11.20;7.38;;;6.10;99.90;;;;;;5071716;28;20509;-43
2023/02/08 10:19:58;;;;;;;11.18;7.20;;;6.10;99.90;;;;;;5072147;28;20151;-41
2023/02/08 10:22:41;;;;;;;12.63;7.53;;;6.10;99.90;;;;;;5071611;28;20043;-34
2023/02/08 10:25:16;;;;;;;11.23;7.05;;;6.20;99.90;;;;;;5071570;28;20024;-37
2023/02/08 10:28:00;;;;;;;11.52;7.30;;;6.20;99.90;;;;;;5071358;28;20024;-37
2023/02/08 10:30:53;;;;;;;12.95;7.32;;;6.20;99.90;;;;;;5071536;28;20074;-38
2023/02/08 10:33:36;;;;;;;12.23;6.93;;;6.30;99.90;;;;;;5071847;28;20028;-38
2023/02/08 10:36:11;;;;;;;22.38;8.90;;;6.30;99.90;;;;;;5071235;28;20017;-33
2023/02/08 10:38:39;;;;;;;15.07;7.57;;;6.20;99.90;;;;;;5071512;28;20070;-36
2023/02/08 10:41:06;;;;;;;15.25;8.48;;;6.10;99.90;;;;;;5071300;28;20016;-34
2023/02/08 10:43:34;;;;;;;13.63;8.05;;;6.10;99.90;;;;;;5071524;28;20032;-35
2023/02/08 10:46:34;;;;;;;17.08;7.38;;;6.10;99.90;;;;;;5071391;28;20029;-40
2023/02/08 10:49:16;;;;;;;15.63;8.30;;;6.10;99.90;;;;;;5071532;28;20060;-34
2023/02/08 10:51:44;;;;;;;15.30;7.82;;;6.20;99.90;;;;;;5071403;28;20099;-38
2023/02/08 10:54:13;;;;;;;13.13;7.45;;;6.30;99.90;;;;;;5071371;28;20032;-35
2023/02/08 10:56:42;;;;;;;12.38;7.35;;;6.30;99.90;;;;;;5069773;28;20374;-36
2023/02/08 10:59:21;;;;;;;13.85;7.68;;;6.30;99.90;;;;;;5071396;28;20043;-33
2023/02/08 11:01:48;;;;;;;14.40;7.60;;;6.30;99.90;;;;;;5071367;28;20035;-35
2023/02/08 11:04:15;;;;;;;12.57;7.90;;;6.40;99.90;;;;;;5071621;28;20078;-35
2023/02/08 11:06:43;;;;;;;11.77;7.43;;;6.40;99.90;;;;;;5071322;28;20028;-33
2023/02/08 11:09:28;;;;;;;12.13;6.78;;;6.50;99.90;;;;;;5071145;28;20024;-35
2023/02/08 11:11:55;;;;;;;11.90;6.57;;;6.50;99.90;;;;;;5071205;28;20196;-38
2023/02/08 11:14:46;;;;;;;12.60;6.75;;;6.50;99.90;;;;;;5071038;28;20029;-36
2023/02/08 11:17:38;;;;;;;12.38;7.07;;;6.60;99.90;;;;;;5075066;28;20029;-35
2023/02/08 11:20:04;;;;;;;12.00;6.78;;;6.60;99.90;;;;;;5074768;28;20043;-37
2023/02/08 11:22:30;;;;;;;12.55;6.43;;;6.60;99.90;;;;;;5074908;28;20048;-36
2023/02/08 11:25:02;;;;;;;14.43;9.13;;;6.70;99.90;;;;;;5074848;28;20029;-40
2023/02/08 11:27:30;;;;;;;14.00;7.95;;;6.60;99.90;;;;;;5074773;28;20027;-37
2023/02/08 11:30:14;;;;;;;13.25;8.18;;;6.50;99.90;;;;;;5075401;28;20031;-43
2023/02/08 11:32:41;;;;;;;13.85;7.55;;;6.50;99.90;;;;;;5075144;28;20474;-43
2023/02/08 11:35:28;;;;;;;14.57;7.45;;;6.50;99.90;;;;;;5074700;28;20398;-43
2023/02/08 11:37:56;;;;;;;13.10;8.32;;;6.60;99.90;;;;;;5074615;28;20024;-43
2023/02/08 11:40:26;;;;;;;11.07;6.70;;;6.60;99.90;;;;;;5074599;28;20052;-43
2023/02/08 11:42:52;;;;;;;15.32;8.07;;;6.60;99.90;;;;;;5074587;28;20025;-43
2023/02/08 11:45:22;;;;;;;12.90;6.82;;;6.70;99.90;;;;;;5074716;28;20496;-43
2023/02/08 11:47:49;;;;;;;11.65;7.57;;;6.70;99.90;;;;;;5074343;28;20039;-43
2023/02/08 11:50:31;;;;;;;11.55;6.88;;;6.70;99.90;;;;;;5073058;28;20502;-42
2023/02/08 11:53:18;;;;;;;11.02;6.57;;;6.80;99.90;;;;;;5074493;28;20021;-39
2023/02/08 11:55:43;;;;;;;10.70;7.00;;;6.80;99.90;;;;;;5074154;28;20052;-38
2023/02/08 11:58:12;;;;;;;13.50;6.72;;;6.90;99.90;;;;;;5073971;28;20114;-38
2023/02/08 12:00:39;;;;;;;14.77;6.05;;;6.90;99.90;;;;;;5074231;28;20451;-38
2023/02/08 12:03:17;;;;;;;11.07;6.28;;;6.90;99.90;;;;;;5074592;28;20052;-37
2023/02/08 12:06:11;;;;;;;12.00;6.18;;;7.00;99.90;;;;;;5074379;28;20359;-36
2023/02/08 12:09:02;;;;;;;10.20;6.13;;;7.00;99.90;;;;;;5074195;28;20109;-34
2023/02/08 12:11:40;;;;;;;12.43;6.40;;;7.00;99.90;;;;;;5074278;28;20501;-33
2023/02/08 12:14:39;;;;;;;9.68;5.45;;;7.00;99.90;;;;;;5074399;28;20037;-35
2023/02/08 12:17:10;;;;;;;12.50;6.22;;;7.10;99.90;;;;;;5073892;28;20026;-35
2023/02/08 12:19:56;;;;;;;11.00;5.65;;;7.10;99.90;;;;;;5073946;28;20025;-39
2023/02/08 12:22:26;;;;;;;9.32;5.18;;;7.10;99.90;;;;;;5074258;28;20033;-40
2023/02/08 12:25:16;;;;;;;9.55;4.93;;;7.10;99.90;;;;;;5073900;28;20112;-41
2023/02/08 12:27:58;;;;;;;8.73;5.13;;;7.10;99.90;;;;;;5073067;28;20053;-40
2023/02/08 12:30:32;;;;;;;8.48;5.10;;;7.20;99.90;;;;;;5073924;28;20496;-38
2023/02/08 12:33:01;;;;;;;;;;;7.20;99.90;;;;;;5074079;28;20107;-35
2023/02/08 12:35:48;;;;;;;9.30;5.07;;;7.20;99.90;;;;;;5073576;28;20002;-39
2023/02/08 12:41:28;;;;;;;8.98;4.97;;;7.20;99.90;;;;;;5073634;28;20449;-37
2023/02/08 12:44:29;;;;;;;9.18;4.75;;;7.30;99.90;;;;;;5073397;28;20101;-37
2023/02/08 12:47:12;;;;;;;7.68;4.30;;;7.30;99.90;;;;;;5071861;28;20032;-41
2023/02/08 12:50:18;;;;;;;8.23;4.72;;;7.30;99.90;;;;;;5073286;28;20024;-38
2023/02/08 12:52:51;;;;;;;9.13;4.57;;;7.30;99.90;;;;;;5073101;28;20032;-43
2023/02/08 12:55:34;;;;;;;7.05;4.65;;;7.30;99.90;;;;;;5073038;28;20108;-40
2023/02/08 12:58:29;;;;;;;9.93;4.40;;;7.30;99.90;;;;;;5073457;28;20081;-43
2023/02/08 13:01:01;;;;;;;9.55;4.57;;;7.30;99.90;;;;;;5073158;28;20029;-37
2023/02/08 13:04:03;;;;;;;6.68;4.15;;;7.30;99.90;;;;;;5073294;28;20540;-34
2023/02/08 13:06:42;;;;;;;8.07;4.28;;;7.40;99.90;;;;;;5072713;28;20394;-41
2023/02/08 13:09:14;;;;;;;7.80;4.15;;;7.40;99.90;;;;;;5072958;28;20425;-41
2023/02/08 13:11:54;;;;;;;7.13;4.40;;;7.40;99.90;;;;;;5073013;28;20108;-37
2023/02/08 13:14:49;;;;;;;5.72;4.00;;;7.40;99.90;;;;;;5073182;28;20020;-38